Time;durP1;ratioP1;P1;durP2;ratioP2;P2;SDS_P1;SDS_P2;PMS_P1;PMS_P2;Temp;Humidity;BMP_temperature;BMP_pressure;BME280_temperature;BME280_humidity;BME280_pressure;Samples;Min_cycle;Max_cycle;Signal;HPM_P1;HPM_P2
2023/01/15 00:01:44;;;;;;;2.50;1.00;;;9.00;99.90;;;;;;5055715;28;20521;-70
2023/01/15 00:04:13;;;;;;;2.23;1.10;;;9.00;99.90;;;;;;5056038;28;20465;-70
2023/01/15 00:06:41;;;;;;;1.37;1.07;;;9.10;99.90;;;;;;5056281;28;20799;-70
2023/01/15 00:09:11;;;;;;;1.80;1.00;;;9.10;99.90;;;;;;5055660;28;20882;-70
2023/01/15 00:11:38;;;;;;;1.70;1.10;;;9.10;99.90;;;;;;5056067;28;20542;-70
2023/01/15 00:14:05;;;;;;;1.73;1.10;;;9.20;99.90;;;;;;5055978;28;20469;-70
2023/01/15 00:16:32;;;;;;;1.47;0.90;;;9.20;99.90;;;;;;5055871;28;20454;-71
2023/01/15 00:19:03;;;;;;;1.30;1.00;;;9.20;99.90;;;;;;5055735;28;20811;-70
2023/01/15 00:21:32;;;;;;;2.53;1.30;;;9.20;99.90;;;;;;5055308;28;20999;-70
2023/01/15 00:29:27;;;;;;;1.60;1.13;;;9.20;99.90;;;;;;5055925;28;20431;-70
2023/01/15 00:31:57;;;;;;;1.30;0.80;;;9.20;99.90;;;;;;5055149;28;20458;-71
2023/01/15 00:34:24;;;;;;;1.50;0.93;;;9.30;99.90;;;;;;5055384;28;20455;-70
2023/01/15 00:36:53;;;;;;;1.20;0.90;;;9.20;99.90;;;;;;5055309;28;20546;-71
2023/01/15 00:39:20;;;;;;;1.50;0.90;;;9.20;99.90;;;;;;5055273;28;20481;-70
2023/01/15 00:41:47;;;;;;;2.57;1.10;;;9.20;99.90;;;;;;5055116;28;20491;-70
2023/01/15 00:44:14;;;;;;;1.70;1.13;;;9.20;99.90;;;;;;5055374;28;20465;-69
2023/01/15 00:46:41;;;;;;;2.20;1.10;;;9.30;99.90;;;;;;5055251;28;20459;-69
2023/01/15 00:49:08;;;;;;;1.50;0.90;;;9.30;99.90;;;;;;5055219;28;20459;-69
2023/01/15 00:51:35;;;;;;;1.27;0.80;;;9.30;99.90;;;;;;5054869;28;20541;-70
2023/01/15 00:54:04;;;;;;;2.33;1.00;;;9.30;99.90;;;;;;5055279;28;20459;-71
2023/01/15 00:56:31;;;;;;;2.70;1.00;;;9.30;99.90;;;;;;5055851;28;20455;-70
2023/01/15 00:58:59;;;;;;;1.27;0.90;;;9.30;99.90;;;;;;5054987;28;20466;-70
2023/01/15 01:01:26;;;;;;;2.00;0.90;;;9.40;99.90;;;;;;5054784;28;20515;-70
2023/01/15 01:03:52;;;;;;;1.97;1.00;;;9.40;99.90;;;;;;5053699;28;20554;-69
2023/01/15 01:06:20;;;;;;;2.10;0.83;;;9.40;99.90;;;;;;5054801;28;20546;-70
2023/01/15 01:08:48;;;;;;;1.30;0.83;;;9.30;99.90;;;;;;5055106;28;20461;-70
2023/01/15 01:11:18;;;;;;;1.37;1.00;;;9.30;99.90;;;;;;5054958;28;20451;-70
2023/01/15 01:13:45;;;;;;;1.40;0.87;;;9.40;99.90;;;;;;5054712;28;20469;-70
2023/01/15 01:16:32;;;;;;;1.83;1.10;;;9.30;99.90;;;;;;5054567;28;20455;-70
2023/01/15 01:19:00;;;;;;;1.83;1.00;;;9.40;99.90;;;;;;5055339;28;20435;-69
2023/01/15 01:21:28;;;;;;;1.40;0.80;;;9.40;99.90;;;;;;5055271;28;20479;-69
2023/01/15 01:23:55;;;;;;;1.30;0.90;;;9.40;99.90;;;;;;5056311;28;20497;-70
2023/01/15 01:26:23;;;;;;;1.30;0.90;;;9.50;99.90;;;;;;5055969;28;20462;-68
2023/01/15 01:28:51;;;;;;;1.60;0.90;;;9.50;99.90;;;;;;5055210;28;20455;-70
2023/01/15 01:31:19;;;;;;;1.63;0.90;;;9.50;99.90;;;;;;5054480;28;20459;-69
2023/01/15 01:33:49;;;;;;;1.77;0.80;;;9.50;99.90;;;;;;5054449;28;20452;-70
2023/01/15 01:36:16;;;;;;;1.87;1.00;;;9.50;99.90;;;;;;5054233;28;20776;-70
2023/01/15 01:38:43;;;;;;;1.30;0.87;;;9.60;99.90;;;;;;5054138;28;20466;-69
2023/01/15 01:41:10;;;;;;;1.77;0.80;;;9.60;99.90;;;;;;5054135;28;20536;-69
2023/01/15 01:43:55;;;;;;;2.63;1.13;;;9.60;99.90;;;;;;5054488;28;20497;-69
2023/01/15 01:46:22;;;;;;;1.20;0.80;;;9.60;99.90;;;;;;5054660;28;20451;-69
2023/01/15 01:48:53;;;;;;;1.40;0.90;;;9.60;99.90;;;;;;5054395;28;20450;-69
2023/01/15 01:51:25;;;;;;;1.30;0.80;;;9.60;99.90;;;;;;5053972;28;20501;-69
2023/01/15 01:53:52;;;;;;;1.77;0.90;;;9.60;99.90;;;;;;5054161;28;20439;-69
2023/01/15 01:56:19;;;;;;;1.50;0.90;;;9.60;99.90;;;;;;5054039;28;20447;-69
2023/01/15 01:58:48;;;;;;;1.40;1.00;;;9.60;99.90;;;;;;5053679;28;20450;-69
2023/01/15 02:01:17;;;;;;;1.40;1.00;;;9.60;99.90;;;;;;5053982;28;20812;-70
2023/01/15 02:03:45;;;;;;;1.53;0.70;;;9.50;99.90;;;;;;5053819;28;20467;-71
2023/01/15 02:06:14;;;;;;;1.40;0.70;;;9.50;99.90;;;;;;5054459;28;20811;-70
2023/01/15 02:08:40;;;;;;;1.20;0.80;;;9.50;99.90;;;;;;5053996;28;20455;-70
2023/01/15 02:11:14;;;;;;;1.30;0.90;;;9.50;99.90;;;;;;5053923;28;20498;-70
2023/01/15 02:13:49;;;;;;;1.20;0.70;;;9.40;99.90;;;;;;5054170;28;20823;-70
2023/01/15 02:16:22;;;;;;;1.40;0.90;;;9.40;99.90;;;;;;5056827;28;20453;-70
2023/01/15 02:18:56;;;;;;;2.80;0.97;;;9.40;99.90;;;;;;5058472;28;20432;-70
2023/01/15 02:21:31;;;;;;;1.57;0.73;;;9.40;99.90;;;;;;5057948;28;20965;-71
2023/01/15 02:24:08;;;;;;;1.93;0.90;;;9.40;99.90;;;;;;5058175;28;20493;-69
2023/01/15 02:27:06;;;;;;;1.63;0.70;;;9.30;99.90;;;;;;5058448;28;20531;-71
2023/01/15 02:29:42;;;;;;;1.20;0.70;;;9.30;99.90;;;;;;5059279;28;20450;-70
2023/01/15 02:32:14;;;;;;;1.73;0.90;;;9.20;99.90;;;;;;5057979;28;20435;-69
2023/01/15 02:34:46;;;;;;;1.20;0.90;;;9.20;99.90;;;;;;5058086;28;20454;-69
2023/01/15 02:37:16;;;;;;;1.77;0.80;;;9.20;99.90;;;;;;5057781;28;20439;-71
2023/01/15 02:39:46;;;;;;;1.30;0.80;;;9.10;99.90;;;;;;5057366;28;20542;-70
2023/01/15 02:42:17;;;;;;;2.77;0.90;;;9.20;99.90;;;;;;5057642;28;20467;-69
2023/01/15 02:44:48;;;;;;;1.80;1.10;;;9.10;99.90;;;;;;5057870;28;20453;-70
2023/01/15 02:47:18;;;;;;;2.13;0.90;;;9.10;99.90;;;;;;5057454;28;20530;-71
2023/01/15 02:49:47;;;;;;;1.20;0.80;;;9.10;99.90;;;;;;5057328;28;20784;-69
2023/01/15 02:52:21;;;;;;;1.13;0.60;;;9.10;99.90;;;;;;5057396;28;20465;-70
2023/01/15 02:54:52;;;;;;;1.80;0.90;;;9.10;99.90;;;;;;5057568;28;20449;-70
2023/01/15 02:57:22;;;;;;;2.80;0.80;;;9.10;99.90;;;;;;5057107;28;20465;-70
2023/01/15 02:59:51;;;;;;;1.50;0.80;;;9.10;99.90;;;;;;5058452;28;20741;-70
2023/01/15 03:02:22;;;;;;;1.20;0.70;;;9.00;99.90;;;;;;5057620;28;20479;-70
2023/01/15 03:04:56;;;;;;;1.50;0.83;;;9.00;99.90;;;;;;5057015;28;20443;-70
2023/01/15 03:07:27;;;;;;;1.30;0.80;;;9.10;99.90;;;;;;5056994;28;20439;-70
2023/01/15 03:09:55;;;;;;;1.20;0.80;;;9.00;99.90;;;;;;5057357;28;20440;-70
2023/01/15 03:12:26;;;;;;;1.30;0.90;;;9.10;99.90;;;;;;5057140;28;20498;-69
2023/01/15 03:15:03;;;;;;;1.70;0.73;;;9.10;99.90;;;;;;5056848;28;20443;-70
2023/01/15 03:17:36;;;;;;;1.23;0.80;;;9.00;99.90;;;;;;5056967;28;20478;-69
2023/01/15 03:20:10;;;;;;;2.23;0.87;;;9.10;99.90;;;;;;5057539;28;20538;-69
2023/01/15 03:22:40;;;;;;;1.60;0.90;;;9.10;99.90;;;;;;5057483;28;20497;-69
2023/01/15 03:25:11;;;;;;;1.30;0.90;;;9.10;99.90;;;;;;5057541;28;20906;-69
2023/01/15 03:27:40;;;;;;;1.83;0.93;;;9.00;99.90;;;;;;5056477;28;20975;-70
2023/01/15 03:30:11;;;;;;;1.30;0.77;;;9.10;99.90;;;;;;5056644;28;21037;-69
2023/01/15 03:32:38;;;;;;;1.30;0.87;;;9.10;99.90;;;;;;5056798;28;20522;-71
2023/01/15 03:35:09;;;;;;;1.63;0.90;;;9.10;99.90;;;;;;5056792;28;20786;-70
2023/01/15 03:37:36;;;;;;;1.30;0.80;;;9.00;99.90;;;;;;5056709;28;20827;-69
2023/01/15 03:40:04;;;;;;;1.93;0.90;;;9.10;99.90;;;;;;5056968;28;20455;-70
2023/01/15 03:42:45;;;;;;;1.20;0.90;;;9.10;99.90;;;;;;5057446;28;20479;-70
2023/01/15 03:45:17;;;;;;;1.87;1.00;;;9.10;99.90;;;;;;5056654;28;20435;-70
2023/01/15 03:47:52;;;;;;;1.43;1.13;;;9.10;99.90;;;;;;5057178;28;20439;-70
2023/01/15 03:50:26;;;;;;;1.30;0.90;;;9.10;99.90;;;;;;5057179;28;20538;-70
2023/01/15 03:53:02;;;;;;;1.47;0.87;;;9.10;99.90;;;;;;5056858;28;20522;-70
2023/01/15 03:55:38;;;;;;;1.30;0.90;;;9.10;99.90;;;;;;5057558;28;20443;-70
2023/01/15 03:58:11;;;;;;;2.13;0.90;;;9.10;99.90;;;;;;5056661;28;20900;-69
2023/01/15 04:00:44;;;;;;;2.10;0.83;;;9.10;99.90;;;;;;5056844;28;20443;-69
2023/01/15 04:03:14;;;;;;;1.90;1.00;;;9.10;99.90;;;;;;5056563;28;20973;-70
2023/01/15 04:05:42;;;;;;;1.50;0.90;;;9.10;99.90;;;;;;5056318;28;20608;-70
2023/01/15 04:08:09;;;;;;;2.70;1.00;;;9.20;99.90;;;;;;5057258;28;20532;-69
2023/01/15 04:10:36;;;;;;;1.50;0.93;;;9.10;99.90;;;;;;5057076;28;20454;-71
2023/01/15 04:13:03;;;;;;;1.20;0.70;;;8.90;99.90;;;;;;5056116;28;20461;-71
2023/01/15 04:15:31;;;;;;;1.80;0.80;;;8.70;99.90;;;;;;5056069;28;20475;-69
2023/01/15 04:17:58;;;;;;;1.70;0.80;;;8.40;99.90;;;;;;5056991;28;20455;-71
2023/01/15 04:20:25;;;;;;;1.40;0.80;;;8.20;99.90;;;;;;5055960;28;20543;-71
2023/01/15 04:22:51;;;;;;;2.43;0.80;;;8.10;99.90;;;;;;5056818;28;20526;-71
2023/01/15 04:25:18;;;;;;;1.97;0.70;;;8.00;99.90;;;;;;5055872;28;20455;-70
2023/01/15 04:27:45;;;;;;;1.73;0.70;;;7.80;99.90;;;;;;5056155;28;20459;-70
2023/01/15 04:30:16;;;;;;;1.50;0.80;;;7.60;99.90;;;;;;5056189;28;20554;-71
2023/01/15 04:32:44;;;;;;;1.20;0.70;;;7.40;99.90;;;;;;5056456;28;20902;-70
2023/01/15 04:35:11;;;;;;;1.60;0.70;;;7.20;99.90;;;;;;5056150;28;20789;-70
2023/01/15 04:37:37;;;;;;;1.57;0.63;;;6.90;99.90;;;;;;5056064;28;20462;-71
2023/01/15 04:40:06;;;;;;;1.93;0.83;;;6.70;99.90;;;;;;5056297;28;20455;-71
2023/01/15 04:45:16;;;;;;;3.73;0.70;;;6.40;99.90;;;;;;5056208;28;20883;-71
2023/01/15 04:47:45;;;;;;;2.60;0.70;;;6.30;99.90;;;;;;5055930;28;20463;-70
2023/01/15 04:50:12;;;;;;;1.27;0.70;;;6.20;99.90;;;;;;5056123;28;20546;-71
2023/01/15 04:52:38;;;;;;;2.63;0.90;;;6.20;99.90;;;;;;5055536;28;20468;-70
2023/01/15 04:55:06;;;;;;;1.90;0.70;;;6.10;99.90;;;;;;5056520;28;20465;-70
2023/01/15 04:57:34;;;;;;;4.03;0.80;;;6.10;99.90;;;;;;5057176;28;20465;-70
2023/01/15 05:00:01;;;;;;;1.80;0.70;;;6.00;99.90;;;;;;5056422;28;20520;-70
2023/01/15 05:02:27;;;;;;;1.10;0.70;;;6.00;99.90;;;;;;5056403;28;20989;-69
2023/01/15 05:04:55;;;;;;;2.87;0.80;;;6.00;99.90;;;;;;5056125;28;20465;-69
2023/01/15 05:07:22;;;;;;;1.20;0.73;;;6.00;99.90;;;;;;5056480;28;20584;-69
2023/01/15 05:09:51;;;;;;;1.50;0.73;;;6.00;99.90;;;;;;5055148;28;20557;-70
2023/01/15 05:12:18;;;;;;;2.20;0.80;;;6.00;99.90;;;;;;5054746;28;20455;-70
2023/01/15 05:14:45;;;;;;;2.67;0.80;;;6.00;99.90;;;;;;5054980;28;20550;-70
2023/01/15 05:17:12;;;;;;;2.70;0.93;;;6.00;99.90;;;;;;5056057;28;20455;-70
2023/01/15 05:19:38;;;;;;;1.20;0.80;;;6.00;99.90;;;;;;5056735;28;20852;-70
2023/01/15 05:22:07;;;;;;;1.60;0.80;;;6.00;99.90;;;;;;5056550;28;20570;-70
2023/01/15 05:24:34;;;;;;;1.53;0.70;;;6.00;99.90;;;;;;5055694;28;20517;-70
2023/01/15 05:27:01;;;;;;;1.30;0.90;;;6.00;99.90;;;;;;5054918;28;20465;-71
2023/01/15 05:29:28;;;;;;;1.20;0.90;;;6.00;99.90;;;;;;5054613;28;20455;-71
2023/01/15 05:31:55;;;;;;;1.83;0.70;;;6.00;99.90;;;;;;5054401;28;20455;-70
2023/01/15 05:34:22;;;;;;;1.67;0.70;;;6.00;99.90;;;;;;5054715;28;20455;-70
2023/01/15 05:36:48;;;;;;;1.70;0.80;;;6.00;99.90;;;;;;5054637;28;20465;-70
2023/01/15 05:39:17;;;;;;;1.83;0.90;;;6.00;99.90;;;;;;5055564;28;20458;-70
2023/01/15 05:41:49;;;;;;;1.10;0.70;;;6.00;99.90;;;;;;5054963;28;20455;-71
2023/01/15 05:44:18;;;;;;;1.20;0.70;;;6.00;99.90;;;;;;5054878;28;20467;-70
2023/01/15 05:46:46;;;;;;;3.40;1.13;;;6.00;99.90;;;;;;5054945;28;20779;-71
2023/01/15 05:49:15;;;;;;;1.30;0.70;;;6.10;99.90;;;;;;5055187;28;20920;-71
2023/01/15 05:51:43;;;;;;;1.70;1.00;;;6.10;99.90;;;;;;5055917;28;20919;-71
2023/01/15 05:54:14;;;;;;;5.47;1.17;;;6.10;99.90;;;;;;5055849;28;20457;-70
2023/01/15 05:56:44;;;;;;;3.60;1.10;;;6.10;99.90;;;;;;5056057;28;20754;-69
2023/01/15 05:59:12;;;;;;;2.13;1.27;;;6.10;99.90;;;;;;5054865;28;20454;-70
2023/01/15 06:01:39;;;;;;;1.20;0.80;;;6.10;99.90;;;;;;5055176;28;20455;-70
2023/01/15 06:04:07;;;;;;;2.90;0.80;;;6.20;99.90;;;;;;5054313;28;20490;-70
2023/01/15 06:06:35;;;;;;;1.70;0.80;;;6.20;99.90;;;;;;5054304;28;20465;-70
2023/01/15 06:09:03;;;;;;;1.23;0.70;;;6.20;99.90;;;;;;5054405;28;20769;-71
2023/01/15 06:11:30;;;;;;;1.10;0.70;;;6.20;99.90;;;;;;5054156;28;20469;-70
2023/01/15 06:13:58;;;;;;;1.60;0.73;;;6.20;99.90;;;;;;5054285;28;20451;-69
2023/01/15 06:16:26;;;;;;;3.23;0.90;;;6.30;99.90;;;;;;5054417;28;20455;-69
2023/01/15 06:18:52;;;;;;;3.60;0.90;;;6.30;99.90;;;;;;5054859;28;20455;-70
2023/01/15 06:21:19;;;;;;;1.30;0.80;;;6.30;99.90;;;;;;5055564;28;20459;-71
2023/01/15 06:23:46;;;;;;;1.90;0.80;;;6.30;99.90;;;;;;5053664;28;20552;-70
2023/01/15 06:26:15;;;;;;;1.90;0.80;;;6.40;99.90;;;;;;5054115;28;20459;-69
2023/01/15 06:28:42;;;;;;;2.70;0.90;;;6.40;99.90;;;;;;5053718;28;20455;-70
2023/01/15 06:31:13;;;;;;;1.70;0.80;;;6.40;99.90;;;;;;5053749;28;20451;-70
2023/01/15 06:33:40;;;;;;;1.83;0.70;;;6.50;99.90;;;;;;5053837;28;20461;-70
2023/01/15 06:36:09;;;;;;;1.43;0.80;;;6.50;99.90;;;;;;5053898;28;20465;-70
2023/01/15 06:38:37;;;;;;;2.80;1.10;;;6.50;99.90;;;;;;5053654;28;20499;-70
2023/01/15 06:47:19;;;;;;;1.20;0.70;;;6.50;99.90;;;;;;5053819;28;20465;-71
2023/01/15 06:49:27;;;;;;;1.10;0.70;;;6.60;99.90;;;;;;5053845;28;20422;-70
2023/01/15 06:51:54;;;;;;;1.30;0.73;;;6.60;99.90;;;;;;5053822;28;20774;-71
2023/01/15 06:54:21;;;;;;;2.50;0.97;;;6.60;99.90;;;;;;5053408;28;20451;-70
2023/01/15 06:56:47;;;;;;;1.17;0.70;;;6.60;99.90;;;;;;5053472;28;20550;-70
2023/01/15 06:59:14;;;;;;;1.20;0.70;;;6.50;99.90;;;;;;5054217;28;20473;-70
2023/01/15 07:01:43;;;;;;;1.40;0.80;;;6.50;99.90;;;;;;5054369;28;20937;-70
2023/01/15 07:04:10;;;;;;;1.23;0.87;;;6.50;99.90;;;;;;5057158;28;20479;-70
2023/01/15 07:06:36;;;;;;;1.30;0.90;;;6.50;99.90;;;;;;5056934;28;20558;-70
2023/01/15 07:09:04;;;;;;;1.17;0.80;;;6.50;99.90;;;;;;5057204;28;20788;-70
2023/01/15 07:11:31;;;;;;;1.30;0.70;;;6.50;99.90;;;;;;5057324;28;20465;-70
2023/01/15 07:14:05;;;;;;;5.03;0.90;;;6.50;99.90;;;;;;5057049;28;20458;-69
2023/01/15 07:16:32;;;;;;;1.87;0.80;;;6.50;99.90;;;;;;5057040;28;20440;-70
2023/01/15 07:19:00;;;;;;;1.70;1.00;;;6.50;99.90;;;;;;5057319;28;20789;-70
2023/01/15 07:21:28;;;;;;;3.67;1.00;;;6.50;99.90;;;;;;5057245;28;20798;-68
2023/01/15 07:23:58;;;;;;;1.60;0.73;;;6.60;99.90;;;;;;5056611;28;20487;-70
2023/01/15 07:26:25;;;;;;;1.27;0.70;;;6.50;99.90;;;;;;5056565;28;20915;-69
2023/01/15 07:28:51;;;;;;;1.87;0.97;;;6.50;99.90;;;;;;5056438;28;20463;-70
2023/01/15 07:31:18;;;;;;;1.20;0.77;;;6.50;99.90;;;;;;5056898;28;20550;-70
2023/01/15 07:33:45;;;;;;;2.37;1.00;;;6.50;99.90;;;;;;5056918;28;20480;-69
2023/01/15 07:36:13;;;;;;;1.90;0.90;;;6.50;99.90;;;;;;5056320;28;20546;-70
2023/01/15 07:38:40;;;;;;;1.37;0.83;;;6.50;99.90;;;;;;5056281;28;20547;-69
2023/01/15 07:52:05;;;;;;;1.50;1.40;;;6.50;99.90;;;;;;5057233;28;20553;-70
2023/01/15 07:54:31;;;;;;;2.90;1.00;;;6.50;99.90;;;;;;5056191;28;20461;-70
2023/01/15 07:56:58;;;;;;;2.20;0.90;;;6.50;99.90;;;;;;5055931;28;20919;-70
2023/01/15 07:59:25;;;;;;;1.70;0.80;;;6.50;99.90;;;;;;5056344;28;20463;-69
2023/01/15 08:01:52;;;;;;;7.83;0.90;;;6.50;99.90;;;;;;5055617;28;20469;-70
2023/01/15 08:04:19;;;;;;;2.30;1.00;;;6.50;99.90;;;;;;5055747;28;20483;-70
2023/01/15 08:06:46;;;;;;;4.13;1.10;;;6.50;99.90;;;;;;5055844;28;20940;-70
2023/01/15 08:09:14;;;;;;;1.77;0.97;;;6.50;99.90;;;;;;5055605;28;20491;-71
2023/01/15 08:17:09;;;;;;;1.30;1.03;;;6.50;99.90;;;;;;5055686;28;20480;-70
2023/01/15 08:19:36;;;;;;;2.70;1.33;;;6.50;99.90;;;;;;5055563;28;20572;-69
2023/01/15 08:22:03;;;;;;;3.33;1.17;;;6.50;99.90;;;;;;5055443;28;20494;-70
2023/01/15 08:24:31;;;;;;;1.30;0.90;;;6.50;99.90;;;;;;5055484;28;20463;-70
2023/01/15 08:26:58;;;;;;;1.80;1.10;;;6.50;99.90;;;;;;5056003;28;20793;-70
2023/01/15 08:29:24;;;;;;;1.40;1.00;;;6.50;99.90;;;;;;5056178;28;20455;-70
2023/01/15 08:31:51;;;;;;;1.97;0.90;;;6.50;99.90;;;;;;5055678;28;20897;-69
2023/01/15 08:34:18;;;;;;;1.90;1.00;;;6.50;99.90;;;;;;5055324;28;20461;-70
2023/01/15 08:36:45;;;;;;;1.10;0.80;;;6.50;99.90;;;;;;5055575;28;20455;-71
2023/01/15 08:39:12;;;;;;;1.97;0.93;;;6.50;99.90;;;;;;5056262;28;20465;-70
2023/01/15 08:41:40;;;;;;;2.57;0.90;;;6.50;99.90;;;;;;5055802;28;20486;-70
2023/01/15 08:44:07;;;;;;;1.60;0.90;;;6.60;99.90;;;;;;5055521;28;20479;-70
2023/01/15 08:46:34;;;;;;;1.80;1.10;;;6.60;99.90;;;;;;5055589;28;20908;-70
2023/01/15 08:49:01;;;;;;;3.20;1.00;;;6.60;99.90;;;;;;5055158;28;20912;-70
2023/01/15 08:51:28;;;;;;;1.37;1.10;;;6.60;99.90;;;;;;5055176;28;20469;-70
2023/01/15 08:53:54;;;;;;;1.70;1.20;;;6.70;99.90;;;;;;5055034;28;20550;-71
2023/01/15 08:56:21;;;;;;;1.47;1.20;;;6.60;99.90;;;;;;5055297;28;20546;-69
2023/01/15 08:58:49;;;;;;;1.50;1.10;;;6.70;99.90;;;;;;5055812;28;20618;-71
2023/01/15 09:01:16;;;;;;;1.30;1.00;;;6.60;99.90;;;;;;5055789;28;20455;-69
2023/01/15 09:03:43;;;;;;;6.33;1.70;;;6.70;99.90;;;;;;5055274;28;20493;-70
2023/01/15 09:06:12;;;;;;;1.80;1.03;;;6.70;99.90;;;;;;5055167;28;20465;-70
2023/01/15 09:08:39;;;;;;;1.40;1.00;;;6.70;99.90;;;;;;5055186;28;20994;-70
2023/01/15 09:11:08;;;;;;;1.50;0.90;;;6.80;99.90;;;;;;5054940;28;20455;-71
2023/01/15 09:13:36;;;;;;;1.43;0.97;;;6.70;99.90;;;;;;5058309;28;20541;-70
2023/01/15 09:16:08;;;;;;;1.80;1.03;;;6.70;99.90;;;;;;5075194;28;20876;-71
2023/01/15 09:18:37;;;;;;;6.93;1.53;;;6.70;99.90;;;;;;5075537;28;20450;-71
2023/01/15 09:21:05;;;;;;;2.13;1.10;;;6.80;99.90;;;;;;5075667;28;20466;-70
2023/01/15 09:23:32;;;;;;;3.23;1.10;;;6.80;99.90;;;;;;5074484;28;20492;-70
2023/01/15 09:26:00;;;;;;;2.00;1.10;;;6.80;99.90;;;;;;5074229;28;20549;-70
2023/01/15 09:28:28;;;;;;;2.83;1.00;;;6.80;99.90;;;;;;5074343;28;20523;-69
2023/01/15 09:30:54;;;;;;;1.60;1.00;;;6.80;99.90;;;;;;5074560;28;20460;-70
2023/01/15 09:33:23;;;;;;;1.40;0.90;;;6.80;99.90;;;;;;5072750;28;20541;-71
2023/01/15 09:35:50;;;;;;;2.10;1.10;;;6.90;99.90;;;;;;5054638;28;20550;-70
2023/01/15 09:38:19;;;;;;;1.73;1.13;;;6.90;99.90;;;;;;5054049;28;20855;-70
2023/01/15 09:40:49;;;;;;;1.57;0.90;;;6.90;99.90;;;;;;5054053;28;20455;-70
2023/01/15 09:43:30;;;;;;;1.30;0.90;;;6.90;99.90;;;;;;5054952;28;20835;-71
2023/01/15 09:46:01;;;;;;;1.67;0.90;;;6.90;99.90;;;;;;5054651;28;20449;-71
2023/01/15 09:48:39;;;;;;;2.73;1.00;;;6.90;99.90;;;;;;5055040;28;20454;-70
2023/01/15 09:51:17;;;;;;;1.30;0.90;;;6.90;99.90;;;;;;5054758;28;20530;-70
2023/01/15 09:54:17;;;;;;;1.30;0.80;;;6.90;99.90;;;;;;5054839;28;20464;-70
2023/01/15 09:56:44;;;;;;;1.53;1.20;;;6.90;99.90;;;;;;5022431;28;20469;-70
2023/01/15 09:59:20;;;;;;;2.00;0.97;;;7.00;99.90;;;;;;5054325;28;20908;-70
2023/01/15 10:01:49;;;;;;;1.30;0.90;;;7.00;99.90;;;;;;5054958;28;20449;-70
2023/01/15 10:04:36;;;;;;;1.90;1.00;;;7.10;99.90;;;;;;5054568;28;20542;-70
2023/01/15 10:07:08;;;;;;;1.40;0.90;;;7.10;99.90;;;;;;5054149;28;20888;-70
2023/01/15 10:09:39;;;;;;;1.53;1.00;;;7.20;99.90;;;;;;5054590;28;20849;-70
2023/01/15 10:15:07;;;;;;;2.50;1.23;;;7.20;99.90;;;;;;5054678;28;20426;-71
2023/01/15 10:17:41;;;;;;;1.40;1.00;;;7.20;99.90;;;;;;5054146;28;20550;-71
2023/01/15 10:20:16;;;;;;;1.57;1.00;;;7.20;99.90;;;;;;5053928;28;20450;-70
2023/01/15 10:23:00;;;;;;;1.47;0.83;;;7.20;99.90;;;;;;5053859;28;20486;-70
2023/01/15 10:25:34;;;;;;;1.80;1.10;;;7.30;99.90;;;;;;5053867;28;20467;-70
2023/01/15 10:28:13;;;;;;;3.93;1.20;;;7.30;99.90;;;;;;5053973;28;20440;-71
2023/01/15 10:30:46;;;;;;;1.40;0.90;;;7.40;99.90;;;;;;5054499;28;20839;-70
2023/01/15 10:33:28;;;;;;;1.10;0.80;;;7.40;99.90;;;;;;5054034;28;20448;-70
2023/01/15 10:36:03;;;;;;;1.80;1.00;;;7.40;99.90;;;;;;5055007;28;20826;-70
2023/01/15 10:38:35;;;;;;;2.27;1.00;;;7.50;99.90;;;;;;5057481;28;20439;-70
2023/01/15 10:41:22;;;;;;;2.03;1.00;;;7.50;99.90;;;;;;5057709;28;20453;-71
2023/01/15 10:43:55;;;;;;;2.03;0.93;;;7.50;99.90;;;;;;5058372;28;20797;-69
2023/01/15 10:46:25;;;;;;;1.20;0.80;;;7.60;99.90;;;;;;5057413;28;20440;-70
2023/01/15 10:48:56;;;;;;;1.50;0.90;;;7.60;99.90;;;;;;5057475;28;20464;-70
2023/01/15 10:51:27;;;;;;;2.63;0.90;;;7.60;99.90;;;;;;5057239;28;20443;-70
2023/01/15 10:53:59;;;;;;;1.30;1.00;;;7.60;99.90;;;;;;5057466;28;20449;-69
2023/01/15 10:56:33;;;;;;;2.03;1.07;;;7.60;99.90;;;;;;5057555;28;20465;-70
2023/01/15 10:59:07;;;;;;;1.73;0.90;;;7.60;99.90;;;;;;5057750;28;20765;-70
2023/01/15 11:01:35;;;;;;;1.40;0.87;;;7.70;99.90;;;;;;5057959;28;20443;-70
2023/01/15 11:04:02;;;;;;;1.57;1.00;;;7.60;99.90;;;;;;5057215;28;20566;-70
2023/01/15 11:06:32;;;;;;;1.27;0.83;;;7.70;99.90;;;;;;5057486;28;20538;-70
2023/01/15 11:08:59;;;;;;;1.60;0.90;;;7.70;99.90;;;;;;5057478;28;20462;-69
2023/01/15 11:19:35;;;;;;;1.50;1.07;;;7.80;99.90;;;;;;5057774;28;20455;-71
2023/01/15 11:20:27;;;;;;;1.80;0.90;;;7.90;99.90;;;;;;4998752;28;20442;-71
2023/01/15 11:22:56;;;;;;;2.40;0.90;;;7.90;99.90;;;;;;5048361;28;20569;-70
2023/01/15 11:25:29;;;;;;;1.80;1.13;;;7.80;99.90;;;;;;5057367;28;20562;-70
2023/01/15 11:27:57;;;;;;;2.60;1.00;;;7.80;99.90;;;;;;5056742;28;20451;-69
2023/01/15 11:30:30;;;;;;;1.30;0.90;;;7.80;99.90;;;;;;5057525;28;20763;-69
2023/01/15 11:32:58;;;;;;;3.33;1.07;;;7.80;99.90;;;;;;5057202;28;20475;-69
2023/01/15 11:35:26;;;;;;;2.90;1.00;;;7.80;99.90;;;;;;5056322;28;20549;-70
2023/01/15 11:38:06;;;;;;;2.00;1.50;;;7.90;99.90;;;;;;5056479;28;20551;-70
2023/01/15 11:40:34;;;;;;;2.70;1.23;;;7.80;99.90;;;;;;5056296;28;20528;-71
2023/01/15 11:51:20;;;;;;;1.50;1.07;;;7.80;99.90;;;;;;5056277;28;20450;-70
2023/01/15 11:53:51;;;;;;;3.57;1.40;;;7.80;99.90;;;;;;5055920;28;20915;-70
2023/01/15 11:56:22;;;;;;;4.27;1.20;;;7.80;99.90;;;;;;5056422;28;20462;-71
2023/01/15 11:58:51;;;;;;;2.43;1.00;;;7.80;99.90;;;;;;5056325;28;20454;-71
2023/01/15 12:01:24;;;;;;;1.97;1.30;;;7.90;99.90;;;;;;5055968;28;20501;-70
2023/01/15 12:03:51;;;;;;;1.60;1.00;;;7.80;99.90;;;;;;5056111;28;20501;-71
2023/01/15 12:06:20;;;;;;;2.57;1.50;;;7.80;99.90;;;;;;5055974;28;20602;-70
2023/01/15 12:08:51;;;;;;;1.33;1.13;;;7.80;99.90;;;;;;5055648;28;20986;-70
2023/01/15 12:11:31;;;;;;;1.80;1.20;;;7.80;99.90;;;;;;5056189;28;20505;-71
2023/01/15 12:14:17;;;;;;;1.97;1.00;;;7.80;99.90;;;;;;5056199;28;20439;-71
2023/01/15 12:16:49;;;;;;;1.53;1.10;;;7.90;99.90;;;;;;5056651;28;20435;-71
2023/01/15 12:19:21;;;;;;;1.50;1.33;;;7.80;99.90;;;;;;5056274;28;20560;-71
2023/01/15 12:22:13;;;;;;;1.50;1.17;;;7.80;99.90;;;;;;5055870;28;20435;-70
2023/01/15 12:25:04;;;;;;;5.60;1.23;;;7.80;99.90;;;;;;5055988;28;20799;-70
2023/01/15 12:27:55;;;;;;;2.37;1.40;;;7.80;99.90;;;;;;5055924;28;20475;-70
2023/01/15 12:30:29;;;;;;;1.07;0.77;;;7.80;99.90;;;;;;5055614;28;20792;-69
2023/01/15 12:33:09;;;;;;;2.47;1.23;;;7.80;99.90;;;;;;5055360;28;20509;-70
2023/01/15 12:35:40;;;;;;;1.30;0.80;;;7.70;99.90;;;;;;5055649;28;20434;-71
2023/01/15 12:38:15;;;;;;;1.40;0.90;;;7.80;99.90;;;;;;5055800;28;20432;-70
2023/01/15 12:40:49;;;;;;;4.50;1.30;;;7.90;99.90;;;;;;5055504;28;20439;-71
2023/01/15 12:46:12;;;;;;;2.80;1.10;;;8.20;99.90;;;;;;5055058;28;20467;-70
2023/01/15 12:48:44;;;;;;;1.80;1.10;;;8.50;99.90;;;;;;5055160;28;20825;-71
2023/01/15 12:51:16;;;;;;;1.80;1.10;;;8.40;99.90;;;;;;5061330;28;20464;-71
2023/01/15 12:53:48;;;;;;;1.40;1.07;;;8.40;99.90;;;;;;5074905;28;20460;-70
2023/01/15 12:56:22;;;;;;;2.50;1.40;;;8.40;99.90;;;;;;5074556;28;20534;-71
2023/01/15 12:58:52;;;;;;;1.70;1.10;;;8.20;99.90;;;;;;5074758;28;20438;-70
2023/01/15 13:01:26;;;;;;;2.67;1.03;;;8.10;99.90;;;;;;5058336;28;20482;-71
2023/01/15 13:04:03;;;;;;;2.60;0.90;;;8.00;99.90;;;;;;5054426;28;20454;-71
2023/01/15 13:06:32;;;;;;;6.30;1.00;;;7.90;99.90;;;;;;5054607;28;20738;-71
2023/01/15 13:09:04;;;;;;;1.93;1.17;;;7.90;99.90;;;;;;5054822;28;20795;-70
2023/01/15 13:11:32;;;;;;;2.07;0.90;;;8.00;99.90;;;;;;5069498;28;20447;-71
2023/01/15 13:13:59;;;;;;;1.97;1.00;;;8.00;99.90;;;;;;5075100;28;20786;-70
2023/01/15 13:16:38;;;;;;;2.23;1.00;;;8.20;99.90;;;;;;5075283;28;20462;-71
2023/01/15 13:19:22;;;;;;;2.67;1.00;;;8.50;99.90;;;;;;5076906;28;20449;-71
2023/01/15 13:21:51;;;;;;;1.70;0.90;;;9.10;99.90;;;;;;5077337;28;20461;-71
2023/01/15 13:24:56;;;;;;;2.17;1.10;;;9.80;99.90;;;;;;5075363;28;20449;-70
2023/01/15 13:27:48;;;;;;;1.27;0.80;;;10.30;99.90;;;;;;5074498;28;20914;-70
2023/01/15 13:30:26;;;;;;;1.40;1.10;;;10.90;99.90;;;;;;5074627;28;20454;-71
2023/01/15 13:32:59;;;;;;;2.57;1.20;;;11.20;99.90;;;;;;5075096;28;20439;-70
2023/01/15 13:35:31;;;;;;;1.40;0.70;;;11.20;99.90;;;;;;5074722;28;20788;-71
2023/01/15 13:38:00;;;;;;;4.80;0.90;;;10.70;99.90;;;;;;5074508;28;20442;-70
2023/01/15 13:40:31;;;;;;;1.23;0.90;;;10.70;99.90;;;;;;5074909;28;20461;-71
2023/01/15 13:43:01;;;;;;;1.40;1.00;;;10.60;99.90;;;;;;5074346;28;20442;-71
2023/01/15 13:45:35;;;;;;;1.80;1.00;;;10.30;99.90;;;;;;5073832;28;20514;-70
2023/01/15 13:48:06;;;;;;;1.57;0.80;;;9.70;99.90;;;;;;5074623;28;20782;-70
2023/01/15 13:50:36;;;;;;;2.37;1.10;;;9.20;99.90;;;;;;5074672;28;20439;-70
2023/01/15 13:53:07;;;;;;;3.33;1.40;;;8.90;99.90;;;;;;5074299;28;20785;-70
2023/01/15 13:55:37;;;;;;;2.43;1.10;;;8.60;99.90;;;;;;5074106;28;20540;-70
2023/01/15 13:58:20;;;;;;;1.67;0.90;;;8.40;99.90;;;;;;5074526;28;20458;-71
2023/01/15 14:00:47;;;;;;;2.47;0.80;;;8.40;99.90;;;;;;5074745;28;20452;-71
2023/01/15 14:03:28;;;;;;;1.80;1.00;;;9.00;99.90;;;;;;5074621;28;20503;-70
2023/01/15 14:05:56;;;;;;;1.30;0.90;;;9.50;99.90;;;;;;5074441;28;20988;-71